Flight Track Log - Related Links

Times and Time Zones

All times are in EDT time to prevent confusion due to time zone crossing. See the EJA831 flight status page for this flight to view local times or setup timezone preferences in your user account.

Time Position Orientation Groundspeed Altitude Reporting Facility
EDT Latitude Longitude Course Direction KTS MPH feet Rate Location/Type
Sun 02:00:18 PM 38.4656 -81.6436 315° West 230 265 8,000  Level Indianapolis Center
Sun 02:01:20 PM 38.5169 -81.7114 314° West 267 307 10,800 2,244 Climbing Indianapolis Center
Sun 02:02:21 PM 38.5811 -81.7961 314° West 325 374 12,600 1,951 Climbing Indianapolis Center
Sun 02:03:23 PM 38.6472 -81.8856 313° West 340 391 14,800 1,887 Climbing Indianapolis Center
Sun 02:04:00 PM 38.5311 -81.9829 319° Northwest  Level FlightAware Approximate
Sun 02:04:25 PM 38.7153 -81.9764 314° West 347 399 16,500  Level Indianapolis Center
Sun 02:05:26 PM 38.7819 -82.0667 313° West 348 400 18,200 1,756 Climbing Indianapolis Center
Sun 02:06:28 PM 38.8489 -82.1569 314° West 349 402 20,100 1,790 Climbing Indianapolis Center
Sun 02:07:30 PM 38.9161 -82.2492 313° West 353 406 21,900 1,707 Climbing Indianapolis Center
Sun 02:08:31 PM 38.9836 -82.3414 313° West 354 407 23,600 1,024 Climbing Indianapolis Center
Sun 02:09:33 PM 39.0664 -82.4547 313° West 362 417 24,000 194 Climbing Indianapolis Center
Sun 02:10:35 PM 39.1347 -82.5489 313° West 360 414 24,000  Level Indianapolis Center
Sun 02:11:37 PM 39.2061 -82.6464 313° West 357 411 24,000  Level Indianapolis Center
Sun 02:12:38 PM 39.2736 -82.7419 312° West 357 411 24,000  Level Indianapolis Center
Sun 02:13:40 PM 39.3425 -82.8364 313° West 358 412 24,000  Level Indianapolis Center
Sun 02:14:42 PM 39.4108 -82.9314 313° West 358 412 24,000  Level Indianapolis Center
Sun 02:15:43 PM 39.4797 -83.0264 313° West 359 413 24,000  Level Indianapolis Center
Sun 02:16:45 PM 39.5483 -83.1222 313° West 359 413 24,000  Level Indianapolis Center
Sun 02:17:47 PM 39.6156 -83.2178 312° West 356 410 24,000 -390 Level Indianapolis Center
Sun 02:18:48 PM 39.6839 -83.3139 313° West 358 412 23,200 -927 Descending Indianapolis Center
Sun 02:19:50 PM 39.7544 -83.4136 313° West 367 422 22,100 -585 Descending Indianapolis Center
Sun 02:20:51 PM 39.8347 -83.5250 313° West 386 444 22,000 -49 Descending Indianapolis Center
Sun 02:21:53 PM 39.9069 -83.6294 312° West 389 448 22,000 -435 Level Indianapolis Center
Sun 02:22:55 PM 39.9878 -83.7244 318° Northwest 389 448 21,100 -1,161 Descending Indianapolis Center
Sun 02:23:57 PM 40.0719 -83.8042 324° Northwest 376 433 19,600 -1,463 Descending Indianapolis Center
Sun 02:24:58 PM 40.1522 -83.8842 323° Northwest 364 419 18,100 -1,561 Descending Indianapolis Center
Sun 02:26:00 PM 40.2406 -83.9742 322° Northwest 346 398 16,400 -1,548 Descending Indianapolis Center
Sun 02:27:02 PM 40.3153 -84.0481 323° Northwest 337 388 14,900 -1,500 Descending Indianapolis Center
Sun 02:28:04 PM 40.3869 -84.1217 322° Northwest 327 376 13,300 -1,512 Descending Indianapolis Center
Sun 02:29:05 PM 40.4506 -84.2039 315° West 319 367 11,800 -1,073 Descending Indianapolis Center
Sun 02:30:07 PM 40.5008 -84.3008 304° West 317 365 11,100 -387 Descending Indianapolis Center
Sun 02:31:09 PM 40.5522 -84.3961 305° West 318 366 11,000 -48 Descending Indianapolis Center
Sun 02:32:11 PM 40.6053 -84.4950 305° West 325 374 11,000 -48 Level Indianapolis Center
Sun 02:33:13 PM 40.6572 -84.5939 305° West 328 377 10,900 -829 Descending Indianapolis Center
Sun 02:34:14 PM 40.6881 -84.6906 293° West 286 329 9,300 -1,463 Descending Indianapolis Center
Sun 02:35:16 PM 40.7250 -84.7972 295° West 274 315 7,900 -1,306 Descending Indianapolis Center
Sun 02:36:18 PM 40.7597 -84.8922 296° West 281 323 6,600 -1,257 Descending Indianapolis Center
Sun 02:37:01 PM 40.7972 -84.9367 318° Northwest 280 322 5,700 -1,302 Descending Chicago Center
Sun 02:38:04 PM 40.8528 -85.0078 316° Northwest 280 322 4,300 -1,344 Descending Chicago Center
Sun 02:39:06 PM 40.9025 -85.0786 313° West 271 312 2,900 -1,161 Descending Chicago Center
Sun 02:40:08 PM 40.9386 -85.1292 313° West 220 253 1,900 -968 Descending Chicago Center
Sun 02:42:00 PM 40.9667 -85.1833 294° West  Level FlightAware Approximate
Sun 02:49:00 PM 40.9785 -85.1952 294° West  Level Estimated

Login

Don't have an account? Register now (free) for customized features, flight alerts, and more!